Address 0xf2a5527eb34a526217d30c54ae410308ad5cb864 1

 
Txn Hash Method
Block
From
To
Value [Txn Fee]
0xa671a0560562749ee5f99aca1d870b77927eb34ca6c323433d23ebe34fbfa0190x1de9c881112256032021-09-25 15:20:4322 secs ago0xf2a5527eb34a526217d30c54ae410308ad5cb864OUT 0x2a23ccee45fc2160de7693fcbc53e429536713bd0 BNB0.000221244
0x2a69133bcd00a046005cf0d980f79bd837459bd2cb2797776c453af43524b50c0x1de9c881112254782021-09-25 15:14:286 mins ago0xf2a5527eb34a526217d30c54ae410308ad5cb864OUT 0xc9be651cd20f498d595673916c03f1962eb4c94d0 BNB0.00018437
0xcb98b33a09f463492eaa74156580e7cd36282be6d0fe6a46f78c89a69132579c0x1de9c881112254692021-09-25 15:14:017 mins ago0xf2a5527eb34a526217d30c54ae410308ad5cb864OUT 0x2a23ccee45fc2160de7693fcbc53e429536713bd0 BNB0.001946959
0x71e533ac193ef1155b9728dc1bc7422d981639f5bc86b627c21006e8dd6aef1c0x1de9c881112253682021-09-25 15:08:5812 mins ago0xf2a5527eb34a526217d30c54ae410308ad5cb864OUT 0x7fa79b3229408971f6744e8d34503a528fed70cb0 BNB0.000309603
0xb2d251e520c7feca8b4187e0adf894ab66c56100425bf879f0b9247fe933308b0x1de9c881112251342021-09-25 14:57:1623 mins ago0xf2a5527eb34a526217d30c54ae410308ad5cb864OUT 0xc9be651cd20f498d595673916c03f1962eb4c94d0 BNB0.000528307
0x5eee9cc291719d87b8f080b3add1ce60d45a4bfdd79b8899426c733553e7e40aTransfer112246782021-09-25 14:34:2846 mins ago0xf2a5527eb34a526217d30c54ae410308ad5cb864SELF0xf2a5527eb34a526217d30c54ae410308ad5cb8640 BNB0.00016317
0xc1631a6b4672c8d147433dc340de31bd658995bfab5078707e137162dfb388fa0x1de9c881112246092021-09-25 14:31:0150 mins ago0xf2a5527eb34a526217d30c54ae410308ad5cb864OUT 0x7fa79b3229408971f6744e8d34503a528fed70cb0 BNB0.000212075
0x0e6720c7a36d0ef91c9a90886b3902097c5f3a656d79053d54d77da55f0c4cc20x1de9c881112245652021-09-25 14:28:4952 mins ago0xf2a5527eb34a526217d30c54ae410308ad5cb864OUT 0xc9be651cd20f498d595673916c03f1962eb4c94d0 BNB0.002784325429
0x4b23f3ffb4863db8fbf5455117146d9526a1b0dc6eb5da8a232a81609cdb3980Transfer112244842021-09-25 14:24:4656 mins ago0xf2a5527eb34a526217d30c54ae410308ad5cb864SELF0xf2a5527eb34a526217d30c54ae410308ad5cb8640 BNB0.00011655
0xc2f2e1d07190b63d263f2ff22c9be0dfb95c735ea705f17641b60e0bd76a9d790x1de9c881112243342021-09-25 14:17:161 hr 3 mins ago0xf2a5527eb34a526217d30c54ae410308ad5cb864OUT 0x2a23ccee45fc2160de7693fcbc53e429536713bd0 BNB0.0002212
0x5d3d8c41d2673c894b134ca53e295f9670e22e186a96ea423741719646f3dbca0x1de9c881112243252021-09-25 14:16:491 hr 4 mins ago0xf2a5527eb34a526217d30c54ae410308ad5cb864OUT 0xc9be651cd20f498d595673916c03f1962eb4c94d0 BNB0.000184135
0x5d39763155d42e25e7b12bc49d5556524752639fdedfe198fe0113b2ce044cc10x1de9c881112240832021-09-25 14:04:431 hr 16 mins ago0xf2a5527eb34a526217d30c54ae410308ad5cb864OUT 0x7fa79b3229408971f6744e8d34503a528fed70cb0 BNB0.00269482
0x00cd231f9c57b7a633d5a9b49d6b284e25cf979f45a47954dcfa4a1ff3ea5ad50x1de9c881112239822021-09-25 13:59:101 hr 21 mins ago0xf2a5527eb34a526217d30c54ae410308ad5cb864OUT 0x2a23ccee45fc2160de7693fcbc53e429536713bd0 BNB0.000221015
0x0d475f0ac7b51e479508137d63d08e9c63a3ac1f072b96f956ee889fd8c27fbc0x1de9c881112239242021-09-25 13:56:001 hr 25 mins ago0xf2a5527eb34a526217d30c54ae410308ad5cb864OUT 0x2a23ccee45fc2160de7693fcbc53e429536713bd0 BNB0.0002212
0xd7c0e77d965113dc4f4bff75e145d36afec8895c7e394d83c7943d9cf098c3b40x1de9c881112237282021-09-25 13:45:511 hr 35 mins ago0xf2a5527eb34a526217d30c54ae410308ad5cb864OUT 0x2a23ccee45fc2160de7693fcbc53e429536713bd0 BNB0.000220855
0x0fc50cc6f3dbb354f54b3703ee8d694d47e2411be18a4dda81c8f877328d3b670x1de9c881112236852021-09-25 13:43:281 hr 37 mins ago0xf2a5527eb34a526217d30c54ae410308ad5cb864OUT 0x2a23ccee45fc2160de7693fcbc53e429536713bd0 BNB0.000220895
0xca9b1a2ef3ceda7be4cc33aea64031cc3e6b298d3b0016136b50794b45ba4ed10x1de9c881112236612021-09-25 13:42:081 hr 38 mins ago0xf2a5527eb34a526217d30c54ae410308ad5cb864OUT 0x2a23ccee45fc2160de7693fcbc53e429536713bd0 BNB0.000773001951
0x5d3f11b4559871b4ddcbda6b454b7899f4f0c5e7c1627a866e994a5afb83ea4e0x1de9c881112235972021-09-25 13:38:291 hr 42 mins ago0xf2a5527eb34a526217d30c54ae410308ad5cb864OUT 0x2a23ccee45fc2160de7693fcbc53e429536713bd0 BNB0.00022113
0x695284261d9428361935437da3233c02e6ee0c3655e0a81f586aa6b0b7b1c3910x1de9c881112234522021-09-25 13:31:121 hr 49 mins ago0xf2a5527eb34a526217d30c54ae410308ad5cb864OUT 0x7fa79b3229408971f6744e8d34503a528fed70cb0 BNB0.00056614689
0x35e1d130a354decf6a652bc3989609b1ce1dce2742c4ff693ba76d2da6099bf40x1de9c881112234412021-09-25 13:30:391 hr 50 mins ago0xf2a5527eb34a526217d30c54ae410308ad5cb864OUT 0x7fa79b3229408971f6744e8d34503a528fed70cb0 BNB0.000220895
0x2b695555b8331ff52accce357cde4e02e115ffac12c74125f48a5feca44c69de0x1de9c881112234082021-09-25 13:29:001 hr 52 mins ago0xf2a5527eb34a526217d30c54ae410308ad5cb864OUT 0x2a23ccee45fc2160de7693fcbc53e429536713bd0 BNB0.000212175
0xc7fdd672818725a0a6cafa9b69b46fc045639014782d3927b7d7448b96d775ea0x1de9c881112232992021-09-25 13:23:331 hr 57 mins ago0xf2a5527eb34a526217d30c54ae410308ad5cb864OUT 0x2a23ccee45fc2160de7693fcbc53e429536713bd0 BNB0.000890320692
0x76868106e6b24d2f92df0ed87e152d2d52254aca6efaa0571ff3b59c89820acf0x1de9c881112231432021-09-25 13:15:452 hrs 5 mins ago0xf2a5527eb34a526217d30c54ae410308ad5cb864OUT 0xc9be651cd20f498d595673916c03f1962eb4c94d0 BNB0.00018437
0xe2ee63004f5e1a94a21e2e6f55b7e12a7b8295a73b5f4d58ebc8003d289b92660x1de9c881112231232021-09-25 13:14:452 hrs 6 mins ago0xf2a5527eb34a526217d30c54ae410308ad5cb864OUT 0x2a23ccee45fc2160de7693fcbc53e429536713bd0 BNB0.000754058323
0x31f5531c0b46400a9949a0fc5d24fd86a46fa400531729e754726d9cfbbbaace0x1de9c881112230382021-09-25 13:10:292 hrs 10 mins ago0xf2a5527eb34a526217d30c54ae410308ad5cb864OUT 0x2a23ccee45fc2160de7693fcbc53e429536713bd0 BNB0.000230145
[ Download CSV Export 
Parent Txn Hash Block From To Value
Loading

Contract Name:
0 BNB

Compiler Version
0

Optimization Enabled:
0 BNB

Other Settings:
-NA-
Block Transaction Gas Used Reward
Age Block Fee Address BC Fee Address Voting Power Jailed Incoming
Block Uncle Number Difficulty Gas Used Reward
Loading
Loading
Make sure to use the "Vote Down" button for any spammy posts, and the "Vote Up" for interesting conversations.